This is the latest recevied weather packets stored in our database for station/object OM2RC-6. If no packets are shown the sender has not sent any weather packets the latest 10 day(s).
| Time | Temp. | Humidity | Pressure | Rain* | Wind** | Luminosity | Snow |
|---|---|---|---|---|---|---|---|
| 1778160642 | 21.11° C | 66% | 1014 hPa | - | - | - | - |
| 1778160341 | 20.56° C | 66% | 1014 hPa | - | - | - | - |
| 1778160040 | 20° C | 70% | 1014.1 hPa | - | - | - | - |
| 1778159739 | 20° C | 68% | 1014 hPa | - | - | - | - |
| 1778159438 | 19.44° C | 73% | 1014.1 hPa | - | - | - | - |
| 1778159137 | 18.89° C | 76% | 1014.2 hPa | - | - | - | - |
| 1778158835 | 18.33° C | 76% | 1014.2 hPa | - | - | - | - |
| 1778158533 | 18.89° C | 77% | 1014.2 hPa | - | - | - | - |
| 1778158232 | 18.33° C | 78% | 1014.3 hPa | - | - | - | - |
| 1778157929 | 18.33° C | 78% | 1014.2 hPa | - | - | - | - |
| 1778157628 | 18.89° C | 76% | 1014.2 hPa | - | - | - | - |
| 1778157327 | 18.89° C | 75% | 1014.2 hPa | - | - | - | - |
| 1778156723 | 18.89° C | 76% | 1014.2 hPa | - | - | - | - |
| 1778156422 | 18.89° C | 75% | 1014.3 hPa | - | - | - | - |
| 1778156121 | 18.89° C | 74% | 1014.3 hPa | - | - | - | - |
| 1778155819 | 19.44° C | 72% | 1014.3 hPa | - | - | - | - |
| 1778155518 | 19.44° C | 73% | 1014.4 hPa | - | - | - | - |
| 1778155217 | 18.89° C | 73% | 1014.3 hPa | - | - | - | - |
| 1778154916 | 18.89° C | 73% | 1014.4 hPa | - | - | - | - |
| 1778154615 | 20° C | 69% | 1014.5 hPa | - | - | - | - |
| 1778154314 | 22.22° C | 63% | 1014.3 hPa | - | - | - | - |
| 1778154013 | 20.56° C | 70% | 1014.5 hPa | - | - | - | - |
| 1778153712 | 18.33° C | 77% | 1014.6 hPa | - | - | - | - |
| 1778153411 | 17.78° C | 79% | 1014.7 hPa | - | - | - | - |
| 1778153110 | 17.22° C | 80% | 1014.7 hPa | - | - | - | - |
* Rain since midnight (hover to see other rain measurements)
** Current wind speed in m/s (hover to see current wind gust speed)